createdAt,value
2019-05-11T00:01:24.263Z,101098.58
2019-05-11T00:03:57.572Z,101104.70
2019-05-11T00:06:30.900Z,101102.98
2019-05-11T00:09:05.189Z,101104.33
2019-05-11T00:11:39.603Z,101092.18
2019-05-11T00:14:12.880Z,101091.33
2019-05-11T00:16:46.218Z,101086.59
2019-05-11T00:19:19.534Z,101083.12
2019-05-11T00:21:52.873Z,101086.61
2019-05-11T00:24:29.377Z,101081.83
2019-05-11T00:27:02.299Z,101082.28
2019-05-11T00:29:35.638Z,101078.82
2019-05-11T00:32:09.057Z,101077.96
2019-05-11T00:34:42.373Z,101074.06
2019-05-11T00:37:18.408Z,101074.06
2019-05-11T00:39:51.768Z,101068.46
2019-05-11T00:42:25.117Z,101071.95
2019-05-11T00:45:00.028Z,101074.84
2019-05-11T00:47:33.369Z,101069.30
2019-05-11T00:50:08.299Z,101071.72
2019-05-11T00:52:41.646Z,101067.97
2019-05-11T00:55:14.943Z,101066.72
2019-05-11T00:57:49.896Z,101067.58
2019-05-11T01:00:23.217Z,101065.00
2019-05-11T01:02:56.565Z,101069.32
2019-05-11T01:05:29.864Z,101082.17
2019-05-11T01:08:04.269Z,101079.69
2019-05-11T01:10:42.019Z,101083.19
2019-05-11T01:13:12.618Z,101079.35
2019-05-11T01:15:45.922Z,101083.67
2019-05-11T01:18:19.254Z,101080.61
2019-05-11T01:20:52.586Z,101080.23
2019-05-11T01:23:25.887Z,101076.34
2019-05-11T01:25:59.208Z,101082.40
2019-05-11T01:28:32.330Z,101083.22
2019-05-11T01:31:05.633Z,101087.16
2019-05-11T01:33:39.006Z,101077.64
2019-05-11T01:36:12.298Z,101075.06
2019-05-11T01:38:45.732Z,101076.80
2019-05-11T01:41:19.044Z,101073.80
2019-05-11T01:43:52.389Z,101072.89
2019-05-11T01:46:25.691Z,101074.66
2019-05-11T01:48:59.018Z,101072.91
2019-05-11T01:51:32.314Z,101070.33
2019-05-11T01:54:05.626Z,101073.29
2019-05-11T01:56:40.594Z,101069.46
2019-05-11T01:59:13.949Z,101068.58
2019-05-11T02:01:47.253Z,101069.06
2019-05-11T02:04:20.591Z,101071.14
2019-05-11T02:06:53.922Z,101066.02
2019-05-11T02:09:27.600Z,101070.25
2019-05-11T02:12:00.885Z,101068.14
2019-05-11T02:14:34.233Z,101068.41
2019-05-11T02:17:07.544Z,101071.98
2019-05-11T02:19:40.862Z,101084.88
2019-05-11T02:22:14.178Z,101077.66
2019-05-11T02:24:47.593Z,101077.95
2019-05-11T02:27:20.920Z,101069.41
2019-05-11T02:29:54.235Z,101070.73
2019-05-11T02:32:27.586Z,101074.22
2019-05-11T02:35:00.919Z,101081.16
2019-05-11T02:37:34.566Z,101085.52
2019-05-11T02:40:07.890Z,101082.94
2019-05-11T02:42:41.292Z,101091.14
2019-05-11T02:45:14.671Z,101090.31
2019-05-11T02:47:48.023Z,101096.82
2019-05-11T02:50:21.331Z,101091.20
2019-05-11T02:52:54.673Z,101084.25
2019-05-11T02:55:28.009Z,101090.75
2019-05-11T02:58:01.468Z,101099.84
2019-05-11T03:00:42.245Z,101091.63
2019-05-11T03:03:15.600Z,101095.96
2019-05-11T03:05:48.908Z,101091.64
2019-05-11T03:08:22.530Z,101094.18
2019-05-11T03:10:55.835Z,101096.80
2019-05-11T03:13:29.172Z,101100.30
2019-05-11T03:16:02.618Z,101100.27
2019-05-11T03:18:35.921Z,101104.17
2019-05-11T03:21:09.244Z,101104.63
2019-05-11T03:23:42.632Z,101104.63
2019-05-11T03:26:15.951Z,101106.33
2019-05-11T03:28:49.506Z,101108.52
2019-05-11T03:31:22.883Z,101105.06
2019-05-11T03:33:56.216Z,101110.69
2019-05-11T03:36:30.631Z,101116.21
2019-05-11T03:39:04.413Z,101112.30
2019-05-11T03:41:37.741Z,101118.75
2019-05-11T03:44:11.201Z,101115.20
2019-05-11T03:46:44.519Z,101124.91
2019-05-11T03:49:17.847Z,101125.83
2019-05-11T03:51:52.730Z,101129.72
2019-05-11T03:54:26.069Z,101130.11
2019-05-11T03:56:59.367Z,101129.14
2019-05-11T03:59:32.738Z,101133.23
2019-05-11T04:02:06.030Z,101132.72
2019-05-11T04:04:39.370Z,101130.91
2019-05-11T04:07:12.682Z,101137.78
2019-05-11T04:09:46.308Z,101130.20
2019-05-11T04:12:34.289Z,101134.84
2019-05-11T04:14:54.704Z,101136.39
2019-05-11T04:17:28.028Z,101139.22
2019-05-11T04:20:02.959Z,101134.66
2019-05-11T04:22:36.315Z,101135.30
2019-05-11T04:25:10.784Z,101141.19
2019-05-11T04:27:44.164Z,101132.48
2019-05-11T04:30:17.462Z,101142.31
2019-05-11T04:32:50.801Z,101144.92
2019-05-11T04:35:24.161Z,101146.47
2019-05-11T04:37:57.490Z,101152.11
2019-05-11T04:40:30.794Z,101162.93
2019-05-11T04:43:04.126Z,101157.33
2019-05-11T04:45:37.463Z,101154.97
2019-05-11T04:48:10.947Z,101158.73
2019-05-11T04:50:44.288Z,101156.84
2019-05-11T04:53:18.589Z,101154.63
2019-05-11T04:55:51.947Z,101155.64
2019-05-11T04:58:25.240Z,101161.31
2019-05-11T05:00:58.737Z,101162.66
2019-05-11T05:03:40.694Z,101162.13
2019-05-11T05:06:21.743Z,101171.80
2019-05-11T05:08:42.099Z,101170.88
2019-05-11T05:11:15.484Z,101172.77
2019-05-11T05:13:48.807Z,101170.42
2019-05-11T05:16:22.137Z,101179.30
2019-05-11T05:18:55.441Z,101188.30
2019-05-11T05:21:28.937Z,101184.97
2019-05-11T05:24:02.308Z,101187.33
2019-05-11T05:26:35.854Z,101189.84
2019-05-11T05:29:09.201Z,101194.83
2019-05-11T05:31:42.553Z,101193.45
2019-05-11T05:34:15.871Z,101208.23
2019-05-11T05:36:49.218Z,101199.40
2019-05-11T05:39:22.504Z,101211.33
2019-05-11T05:41:57.501Z,101204.72
2019-05-11T05:44:31.022Z,101212.63
2019-05-11T05:47:04.585Z,101207.56
2019-05-11T05:49:37.941Z,101210.30
2019-05-11T05:52:11.561Z,101212.91
2019-05-11T05:54:44.885Z,101208.54
2019-05-11T05:57:18.215Z,101222.78
2019-05-11T05:59:52.906Z,101217.17
2019-05-11T06:02:26.213Z,101221.03
2019-05-11T06:04:59.575Z,101215.93
2019-05-11T06:07:32.863Z,101218.78
2019-05-11T06:10:06.733Z,101214.81
2019-05-11T06:12:40.037Z,101215.81
2019-05-11T06:15:13.363Z,101221.06
2019-05-11T06:17:46.682Z,101221.21
2019-05-11T06:20:20.029Z,101226.73
2019-05-11T06:22:53.323Z,101229.70
2019-05-11T06:25:27.689Z,101242.42
2019-05-11T06:28:00.971Z,101244.14
2019-05-11T06:30:34.309Z,101244.23
2019-05-11T06:33:08.693Z,101249.47
2019-05-11T06:35:42.063Z,101250.84
2019-05-11T06:38:15.360Z,101260.37
2019-05-11T06:40:48.694Z,101261.66
2019-05-11T06:43:22.020Z,101264.77
2019-05-11T06:45:55.628Z,101267.86
2019-05-11T06:48:29.030Z,101272.74
2019-05-11T06:51:02.402Z,101270.19
2019-05-11T06:53:35.767Z,101273.63
2019-05-11T06:56:09.105Z,101278.45
2019-05-11T06:58:45.364Z,101289.73
2019-05-11T07:01:17.536Z,101290.12
2019-05-11T07:03:50.876Z,101287.46
2019-05-11T07:06:28.154Z,101286.62
2019-05-11T07:09:00.439Z,101293.20
2019-05-11T07:11:33.958Z,101293.17
2019-05-11T07:14:19.754Z,101296.81
2019-05-11T07:16:43.688Z,101293.52
2019-05-11T07:19:17.014Z,101305.40
2019-05-11T07:21:50.356Z,101305.06
2019-05-11T07:24:24.311Z,101314.38
2019-05-11T07:26:57.663Z,101314.98
2019-05-11T07:29:30.988Z,101318.66
2019-05-11T07:32:13.680Z,101325.23
2019-05-11T07:34:39.353Z,101328.25
2019-05-11T07:37:12.724Z,101336.70
2019-05-11T07:39:46.053Z,101338.99
2019-05-11T07:42:19.531Z,101338.48
2019-05-11T07:44:52.847Z,101337.66
2019-05-11T07:47:27.766Z,101342.59
2019-05-11T07:50:01.382Z,101334.97
2019-05-11T07:52:37.838Z,101342.89
2019-05-11T07:55:10.930Z,101335.58
2019-05-11T07:57:44.284Z,101343.25
2019-05-11T08:00:18.860Z,101342.80
2019-05-11T08:02:52.239Z,101344.97
2019-05-11T08:05:25.555Z,101352.30
2019-05-11T08:07:59.623Z,101361.74
2019-05-11T08:10:34.164Z,101361.74
2019-05-11T08:13:09.188Z,101358.23
2019-05-11T08:15:42.678Z,101367.77
2019-05-11T08:18:16.027Z,101365.13
2019-05-11T08:20:49.426Z,101373.30
2019-05-11T08:23:22.768Z,101373.13
2019-05-11T08:25:58.104Z,101369.06
2019-05-11T08:28:31.199Z,101381.53
2019-05-11T08:31:04.601Z,101387.65
2019-05-11T08:33:38.937Z,101390.17
2019-05-11T08:36:12.318Z,101405.16
2019-05-11T08:38:48.085Z,101405.61
2019-05-11T08:41:20.848Z,101401.41
2019-05-11T08:43:54.223Z,101409.05
2019-05-11T08:46:28.065Z,101415.65
2019-05-11T08:49:01.484Z,101418.30
2019-05-11T08:51:34.858Z,101414.81
2019-05-11T08:54:09.061Z,101413.45
2019-05-11T08:56:42.565Z,101421.73
2019-05-11T08:59:18.437Z,101427.44
2019-05-11T09:01:50.943Z,101440.98
2019-05-11T09:04:24.341Z,101441.31
2019-05-11T09:06:58.639Z,101450.05
2019-05-11T09:09:32.221Z,101451.02
2019-05-11T09:12:07.658Z,101454.94
2019-05-11T09:14:40.595Z,101458.00
2019-05-11T09:17:13.951Z,101454.94
2019-05-11T09:19:48.070Z,101450.58
2019-05-11T09:22:21.614Z,101462.78
2019-05-11T09:24:58.108Z,101465.70
2019-05-11T09:27:30.977Z,101464.87
2019-05-11T09:30:08.292Z,101464.06
2019-05-11T09:32:44.030Z,101469.73
2019-05-11T09:35:18.870Z,101474.11
2019-05-11T09:37:53.044Z,101473.66
2019-05-11T09:40:28.454Z,101471.05
2019-05-11T09:43:01.977Z,101478.02
2019-05-11T09:45:47.440Z,101480.29
2019-05-11T09:48:12.121Z,101486.61
2019-05-11T09:50:45.441Z,101489.39
2019-05-11T09:53:18.800Z,101490.75
2019-05-11T09:55:52.152Z,101493.09
2019-05-11T09:58:27.920Z,101499.02
2019-05-11T10:01:00.804Z,101500.40
2019-05-11T10:03:34.172Z,101504.71
2019-05-11T10:06:08.356Z,101500.46
2019-05-11T10:08:41.896Z,101507.27
2019-05-11T10:11:15.271Z,101506.33
2019-05-11T10:13:48.621Z,101515.58
2019-05-11T10:16:21.938Z,101514.41
2019-05-11T10:18:55.259Z,101520.91
2019-05-11T10:21:28.565Z,101527.34
2019-05-11T10:24:01.952Z,101524.85
2019-05-11T10:26:35.258Z,101530.74
2019-05-11T10:29:08.746Z,101533.55
2019-05-11T10:31:42.060Z,101537.48
2019-05-11T10:34:17.769Z,101535.42
2019-05-11T10:36:50.501Z,101540.45
2019-05-11T10:39:23.833Z,101539.73
2019-05-11T10:41:58.378Z,101545.08
2019-05-11T10:44:31.986Z,101547.72
2019-05-11T10:47:05.261Z,101556.90
2019-05-11T10:49:38.433Z,101553.03
2019-05-11T10:52:11.853Z,101557.81
2019-05-11T10:54:47.641Z,101556.90
2019-05-11T10:57:20.190Z,101562.36
2019-05-11T10:59:53.535Z,101567.26
2019-05-11T11:02:27.762Z,101570.45
2019-05-11T11:05:01.743Z,101577.87
2019-05-11T11:07:38.122Z,101577.29
2019-05-11T11:10:10.623Z,101582.64
2019-05-11T11:12:43.934Z,101580.12
2019-05-11T11:15:18.271Z,101587.08
2019-05-11T11:17:51.694Z,101589.53
2019-05-11T11:20:25.022Z,101595.70
2019-05-11T11:22:59.033Z,101600.59
2019-05-11T11:25:33.758Z,101604.98
2019-05-11T11:28:08.438Z,101597.59
2019-05-11T11:30:42.051Z,101607.11
2019-05-11T11:33:15.406Z,101604.09
2019-05-11T11:35:48.854Z,101608.84
2019-05-11T11:38:22.168Z,101606.17
2019-05-11T11:40:55.510Z,101605.38
2019-05-11T11:43:28.876Z,101614.05
2019-05-11T11:46:02.147Z,101623.31
2019-05-11T11:48:35.465Z,101616.64
2019-05-11T11:51:08.799Z,101631.45
2019-05-11T11:53:42.173Z,101631.89
2019-05-11T11:56:15.529Z,101629.82
2019-05-11T11:58:49.085Z,101634.80
2019-05-11T12:01:22.485Z,101631.84
2019-05-11T12:03:57.946Z,101641.42
2019-05-11T12:06:30.880Z,101644.23
2019-05-11T12:09:08.594Z,101646.13
2019-05-11T12:11:42.796Z,101650.19
2019-05-11T12:14:18.725Z,101658.97
2019-05-11T12:17:03.946Z,101658.97
2019-05-11T12:19:27.918Z,101660.47
2019-05-11T12:22:01.420Z,101670.56
2019-05-11T12:24:34.722Z,101669.52
2019-05-11T12:27:08.051Z,101683.73
2019-05-11T12:29:41.370Z,101686.11
2019-05-11T12:32:14.720Z,101690.61
2019-05-11T12:34:48.303Z,101698.67
2019-05-11T12:37:22.139Z,101694.80
2019-05-11T12:39:55.509Z,101698.39
2019-05-11T12:42:28.856Z,101699.82
2019-05-11T12:45:02.982Z,101709.11
2019-05-11T12:47:38.376Z,101702.98
2019-05-11T12:50:11.328Z,101708.68
2019-05-11T12:52:44.681Z,101713.91
2019-05-11T12:55:18.158Z,101721.30
2019-05-11T12:57:51.492Z,101730.85
2019-05-11T13:00:30.457Z,101739.16
2019-05-11T13:03:00.528Z,101736.81
2019-05-11T13:05:33.877Z,101744.39
2019-05-11T13:08:08.005Z,101738.34
2019-05-11T13:10:41.617Z,101760.62
2019-05-11T13:13:14.994Z,101761.81
2019-05-11T13:15:48.302Z,101762.37
2019-05-11T13:18:21.719Z,101772.00
2019-05-11T13:20:54.986Z,101774.20
2019-05-11T13:23:29.375Z,101775.50
2019-05-11T13:26:02.745Z,101776.45
2019-05-11T13:28:37.786Z,101787.75
2019-05-11T13:31:11.320Z,101785.31
2019-05-11T13:33:44.720Z,101798.83
2019-05-11T13:36:18.678Z,101794.00
2019-05-11T13:38:52.277Z,101801.31
2019-05-11T13:41:27.461Z,101802.43
2019-05-11T13:44:00.622Z,101812.72
2019-05-11T13:46:33.977Z,101808.21
2019-05-11T13:49:08.602Z,101814.98
2019-05-11T13:51:42.452Z,101816.27
2019-05-11T13:54:18.242Z,101828.25
2019-05-11T13:56:50.819Z,101823.05
2019-05-11T13:59:24.131Z,101829.56
2019-05-11T14:01:59.023Z,101836.69
2019-05-11T14:04:32.333Z,101848.19
2019-05-11T14:07:07.854Z,101848.19
2019-05-11T14:09:40.774Z,101854.14
2019-05-11T14:12:14.093Z,101858.56
2019-05-11T14:14:48.159Z,101863.42
2019-05-11T14:17:21.521Z,101873.27
2019-05-11T14:19:54.970Z,101880.02
2019-05-11T14:22:28.482Z,101882.70
2019-05-11T14:25:01.796Z,101881.02
2019-05-11T14:27:35.192Z,101891.81
2019-05-11T14:30:08.745Z,101891.94
2019-05-11T14:32:42.223Z,101906.83
2019-05-11T14:35:15.524Z,101903.38
2019-05-11T14:37:49.008Z,101906.45
2019-05-11T14:40:22.302Z,101911.73
2019-05-11T14:42:57.959Z,101923.08
2019-05-11T14:45:30.654Z,101931.63
2019-05-11T14:48:04.065Z,101930.48
2019-05-11T14:50:38.572Z,101938.09
2019-05-11T14:53:12.225Z,101937.84
2019-05-11T14:55:45.524Z,101903.53
2019-05-11T14:58:19.845Z,101955.78
2019-05-11T15:00:54.530Z,101962.06
2019-05-11T15:03:28.734Z,101969.20
2019-05-11T15:06:02.390Z,101974.88
2019-05-11T15:08:35.737Z,101977.61
2019-05-11T15:11:09.130Z,101917.59
2019-05-11T15:13:42.528Z,101985.86
2019-05-11T15:16:15.970Z,101985.47
2019-05-11T15:18:49.295Z,102003.79
2019-05-11T15:21:22.609Z,102007.75
2019-05-11T15:23:57.965Z,102010.36
2019-05-11T15:26:30.954Z,102017.32
2019-05-11T15:29:07.839Z,102019.52
2019-05-11T15:31:40.445Z,102030.88
2019-05-11T15:34:13.784Z,102033.49
2019-05-11T15:36:49.047Z,102028.69
2019-05-11T15:39:23.465Z,102037.42
2019-05-11T15:42:09.224Z,102031.79
2019-05-11T15:44:31.969Z,102047.92
2019-05-11T15:47:07.600Z,102049.69
2019-05-11T15:49:40.569Z,102052.64
2019-05-11T15:52:13.901Z,102052.70
2019-05-11T15:54:47.236Z,102058.67
2019-05-11T15:57:20.595Z,102078.84
2019-05-11T15:59:53.936Z,102069.28
2019-05-11T16:02:28.904Z,102075.81
2019-05-11T16:05:03.568Z,102077.53
2019-05-11T16:07:38.438Z,102089.77
2019-05-11T16:10:12.640Z,102091.99
2019-05-11T16:12:48.326Z,102036.31
2019-05-11T16:15:22.183Z,102115.91
2019-05-11T16:17:57.679Z,102128.59
2019-05-11T16:20:30.558Z,102123.81
2019-05-11T16:23:04.424Z,102130.38
2019-05-11T16:25:40.865Z,102137.32
2019-05-11T16:28:13.883Z,102144.72
2019-05-11T16:30:48.199Z,102150.41
2019-05-11T16:33:21.667Z,102151.69
2019-05-11T16:35:55.014Z,102160.82
2019-05-11T16:38:29.196Z,102159.95
2019-05-11T16:41:03.806Z,102151.27
2019-05-11T16:43:38.513Z,102158.22
2019-05-11T16:46:12.069Z,102160.83
2019-05-11T16:48:45.392Z,102165.17
2019-05-11T16:51:18.740Z,102168.23
2019-05-11T16:53:52.086Z,102183.03
2019-05-11T16:56:25.462Z,102193.89
2019-05-11T16:58:58.990Z,102195.19
2019-05-11T17:01:32.310Z,102197.39
2019-05-11T17:04:05.647Z,102200.01
2019-05-11T17:06:39.017Z,102197.38
2019-05-11T17:09:12.339Z,102206.97
2019-05-11T17:11:45.685Z,102207.39
2019-05-11T17:14:18.991Z,102213.05
2019-05-11T17:16:53.396Z,102220.89
2019-05-11T17:19:42.269Z,102227.84
2019-05-11T17:22:01.760Z,102216.92
2019-05-11T17:24:37.761Z,102234.38
2019-05-11T17:27:10.414Z,102172.58
2019-05-11T17:29:43.821Z,102245.27
2019-05-11T17:32:17.730Z,102251.34
2019-05-11T17:34:51.192Z,102260.07
2019-05-11T17:37:24.532Z,102257.88
2019-05-11T17:39:58.683Z,102258.33
2019-05-11T17:42:32.106Z,102259.62
2019-05-11T17:45:08.096Z,102262.24
2019-05-11T17:47:42.615Z,102274.00
2019-05-11T17:50:15.943Z,102281.81
2019-05-11T17:52:49.283Z,102277.03
2019-05-11T17:55:22.602Z,102277.44
2019-05-11T17:57:58.202Z,102290.44
2019-05-11T18:00:30.990Z,102288.33
2019-05-11T18:03:07.490Z,102296.51
2019-05-11T18:05:39.661Z,102298.66
2019-05-11T18:08:12.999Z,102308.61
2019-05-11T18:10:47.928Z,102311.19
2019-05-11T18:13:21.346Z,102319.44
2019-05-11T18:15:54.685Z,102316.49
2019-05-11T18:18:29.026Z,102317.30
2019-05-11T18:21:03.735Z,102321.22
2019-05-11T18:23:38.758Z,102257.94
2019-05-11T18:26:12.268Z,102328.64
2019-05-11T18:28:45.601Z,102336.41
2019-05-11T18:31:18.923Z,102345.93
2019-05-11T18:33:52.279Z,102351.19
2019-05-11T18:36:25.591Z,102350.78
2019-05-11T18:38:58.915Z,102357.27
2019-05-11T18:41:32.268Z,102351.58
2019-05-11T18:44:08.030Z,102362.48
2019-05-11T18:46:40.755Z,102362.88
2019-05-11T18:49:14.038Z,102373.44
2019-05-11T18:51:48.380Z,102382.05
2019-05-11T18:54:22.044Z,102378.19
2019-05-11T18:56:55.379Z,102385.05
2019-05-11T18:59:28.686Z,102390.83
2019-05-11T19:02:02.010Z,102391.62
2019-05-11T19:04:35.324Z,102402.45
2019-05-11T19:07:16.267Z,102405.49
2019-05-11T19:09:43.757Z,102405.18
2019-05-11T19:12:18.746Z,102415.06
2019-05-11T19:14:52.306Z,102415.44
2019-05-11T19:17:25.654Z,102419.73
2019-05-11T19:20:00.049Z,102434.08
2019-05-11T19:22:33.399Z,102434.52
2019-05-11T19:25:09.110Z,102425.81
2019-05-11T19:27:42.167Z,102436.02
2019-05-11T19:30:15.477Z,102439.78
2019-05-11T19:32:49.012Z,102446.72
2019-05-11T19:35:22.351Z,102456.23
2019-05-11T19:37:57.774Z,102465.10
2019-05-11T19:40:31.749Z,102463.25
2019-05-11T19:43:05.090Z,102470.59
2019-05-11T19:45:38.684Z,102471.89
2019-05-11T19:48:12.147Z,102470.27
2019-05-11T19:50:59.945Z,102476.30
2019-05-11T19:53:20.472Z,102487.55
2019-05-11T19:55:53.787Z,102498.40
2019-05-11T19:58:28.975Z,102494.48
2019-05-11T20:01:02.149Z,102507.97
2019-05-11T20:03:37.704Z,102505.15
2019-05-11T20:06:10.467Z,102505.03
2019-05-11T20:08:43.815Z,102508.09
2019-05-11T20:11:18.635Z,102511.52
2019-05-11T20:13:52.177Z,102510.63
2019-05-11T20:16:25.496Z,102515.84
2019-05-11T20:18:58.859Z,102519.70
2019-05-11T20:21:32.178Z,102521.44
2019-05-11T20:24:05.504Z,102526.41
2019-05-11T20:26:38.821Z,102531.52
2019-05-11T20:29:12.304Z,102537.16
2019-05-11T20:31:45.708Z,102545.83
2019-05-11T20:34:19.041Z,102553.61
2019-05-11T20:36:52.363Z,102553.16
2019-05-11T20:39:28.499Z,102551.80
2019-05-11T20:42:00.960Z,102554.39
2019-05-11T20:44:34.103Z,102561.87
2019-05-11T20:47:07.406Z,102556.20
2019-05-11T20:49:40.753Z,102558.75
2019-05-11T20:52:14.068Z,102545.53
2019-05-11T20:54:47.811Z,102569.94
2019-05-11T20:57:21.147Z,102578.17
2019-05-11T20:59:54.576Z,102582.90
2019-05-11T21:02:28.811Z,102588.39
2019-05-11T21:05:03.197Z,102597.77
2019-05-11T21:07:38.811Z,102595.98
2019-05-11T21:10:12.569Z,102595.06
2019-05-11T21:12:45.872Z,102607.13
2019-05-11T21:15:19.220Z,102615.15
2019-05-11T21:17:52.513Z,102611.64
2019-05-11T21:20:25.937Z,102619.84
2019-05-11T21:22:59.248Z,102616.76
2019-05-11T21:25:32.604Z,102622.34
2019-05-11T21:28:08.284Z,102628.42
2019-05-11T21:30:40.960Z,102633.37
2019-05-11T21:33:14.248Z,102641.09
2019-05-11T21:35:48.872Z,102643.28
2019-05-11T21:38:22.263Z,102653.64
2019-05-11T21:40:57.826Z,102649.98
2019-05-11T21:43:30.633Z,102656.18
2019-05-11T21:46:04.014Z,102660.75
2019-05-11T21:48:38.558Z,102665.09
2019-05-11T21:51:12.221Z,102669.81
2019-05-11T21:53:45.563Z,102673.89
2019-05-11T21:56:18.975Z,102680.20
2019-05-11T21:58:53.736Z,102674.23
2019-05-11T22:01:28.147Z,102678.50
2019-05-11T22:04:01.627Z,102686.82
2019-05-11T22:06:35.112Z,102688.48
2019-05-11T22:09:08.891Z,102687.48
2019-05-11T22:11:42.213Z,102693.26
2019-05-11T22:14:15.539Z,102698.91
2019-05-11T22:16:49.021Z,102703.61
2019-05-11T22:19:22.336Z,102704.91
2019-05-11T22:21:58.138Z,102709.67
2019-05-11T22:24:30.716Z,102709.20
2019-05-11T22:27:04.052Z,102710.89
2019-05-11T22:29:37.902Z,102718.00
2019-05-11T22:32:11.368Z,102710.84
2019-05-11T22:34:47.853Z,102715.87
2019-05-11T22:37:20.866Z,102720.09
2019-05-11T22:39:54.179Z,102719.27
2019-05-11T22:42:28.163Z,102723.03
2019-05-11T22:45:01.601Z,102729.51
2019-05-11T22:47:35.025Z,102724.64
2019-05-11T22:50:09.394Z,102738.08
2019-05-11T22:52:43.056Z,102741.97
2019-05-11T22:55:18.605Z,102744.06
2019-05-11T22:57:51.381Z,102747.88
2019-05-11T23:00:38.121Z,102748.13
2019-05-11T23:03:11.642Z,102745.41
2019-05-11T23:05:44.931Z,102747.45
2019-05-11T23:08:18.347Z,102754.30
2019-05-11T23:10:51.700Z,102755.77
2019-05-11T23:13:25.196Z,102757.80
2019-05-11T23:15:58.534Z,102765.58
2019-05-11T23:18:31.851Z,102765.04
2019-05-11T23:21:05.141Z,102767.69
2019-05-11T23:23:38.463Z,102769.36
2019-05-11T23:26:11.767Z,102773.61
2019-05-11T23:28:45.332Z,102776.17
2019-05-11T23:31:18.639Z,102779.84
2019-05-11T23:33:51.976Z,102783.25
2019-05-11T23:36:27.391Z,102787.04
2019-05-11T23:39:00.545Z,102794.41
2019-05-11T23:41:34.321Z,102800.02
2019-05-11T23:44:08.848Z,102803.84
2019-05-11T23:46:42.469Z,102806.43
2019-05-11T23:49:17.790Z,102808.47
2019-05-11T23:51:50.800Z,102809.58
2019-05-11T23:54:24.146Z,102804.72
2019-05-11T23:56:58.310Z,102803.40
2019-05-11T23:59:31.767Z,102802.05
